Time;durP1;ratioP1;P1;durP2;ratioP2;P2;SDS_P1;SDS_P2;PMS_P1;PMS_P2;Temp;Humidity;BMP_temperature;BMP_pressure;BME280_temperature;BME280_humidity;BME280_pressure;Samples;Min_cycle;Max_cycle;Signal;HPM_P1;HPM_P2
2022/04/13 00:00:41;;;;;;;7.40;2.30;;;16.20;99.90;;;;;;4990975;28;20634;-52
2022/04/13 00:03:07;;;;;;;5.33;2.60;;;16.10;99.90;;;;;;4990627;28;20367;-52
2022/04/13 00:05:34;;;;;;;6.43;2.53;;;16.10;99.90;;;;;;4990849;28;20209;-52
2022/04/13 00:08:06;;;;;;;6.47;2.60;;;15.90;99.90;;;;;;4989903;28;20196;-51
2022/04/13 00:10:36;;;;;;;3.77;2.47;;;15.80;99.90;;;;;;4988803;28;20558;-51
2022/04/13 00:13:03;;;;;;;7.80;3.53;;;15.70;99.90;;;;;;4988202;28;20662;-51
2022/04/13 00:15:31;;;;;;;8.53;2.90;;;15.60;99.90;;;;;;4988936;28;20274;-51
2022/04/13 00:17:58;;;;;;;7.60;2.90;;;15.70;99.90;;;;;;4993259;28;20277;-51
2022/04/13 00:20:25;;;;;;;6.23;2.93;;;15.70;99.90;;;;;;4991544;28;20264;-51
2022/04/13 00:22:52;;;;;;;9.43;2.83;;;15.70;99.90;;;;;;4993383;28;20218;-51
2022/04/13 00:25:19;;;;;;;5.60;2.63;;;15.50;99.90;;;;;;4990854;28;20683;-51
2022/04/13 00:27:46;;;;;;;6.07;2.80;;;15.50;99.90;;;;;;4990628;28;20299;-52
2022/04/13 00:30:12;;;;;;;6.93;2.90;;;15.60;99.90;;;;;;4986442;28;20438;-51
2022/04/13 00:32:39;;;;;;;7.23;2.83;;;15.60;99.90;;;;;;4992415;28;20215;-51
2022/04/13 00:35:06;;;;;;;8.03;3.13;;;15.70;99.90;;;;;;4992919;28;20209;-53
2022/04/13 00:37:33;;;;;;;5.13;2.90;;;15.70;99.90;;;;;;4992492;28;20212;-51
2022/04/13 00:40:00;;;;;;;5.67;2.80;;;15.60;99.90;;;;;;4991873;28;20251;-52
2022/04/13 00:42:29;;;;;;;6.93;3.30;;;15.40;99.90;;;;;;4990753;28;20362;-52
2022/04/13 00:44:55;;;;;;;5.90;2.67;;;15.50;99.90;;;;;;4989871;28;20734;-51
2022/04/13 00:47:23;;;;;;;6.83;2.93;;;15.50;99.90;;;;;;4989583;28;20205;-53
2022/04/13 00:49:50;;;;;;;4.03;2.87;;;15.30;99.90;;;;;;4992176;28;20342;-51
2022/04/13 00:52:19;;;;;;;7.23;3.10;;;15.10;99.90;;;;;;4992758;28;20609;-51
2022/04/13 00:54:48;;;;;;;4.50;3.30;;;15.10;99.90;;;;;;4991162;28;20220;-50
2022/04/13 00:57:18;;;;;;;8.67;3.40;;;15.10;99.90;;;;;;4987905;28;20204;-51
2022/04/13 00:59:48;;;;;;;7.50;3.43;;;14.90;99.90;;;;;;4990928;28;20621;-50
2022/04/13 01:02:16;;;;;;;9.67;3.67;;;14.90;99.90;;;;;;4989924;28;20623;-51
2022/04/13 01:04:46;;;;;;;6.77;4.00;;;14.90;99.90;;;;;;4992328;28;20210;-50
2022/04/13 01:07:13;;;;;;;7.07;3.10;;;14.90;99.90;;;;;;4991559;28;20212;-51
2022/04/13 01:09:40;;;;;;;6.80;3.53;;;14.70;99.90;;;;;;4989715;28;20204;-51
2022/04/13 01:12:08;;;;;;;7.43;3.37;;;14.80;99.90;;;;;;4987308;28;20292;-50
2022/04/13 01:14:36;;;;;;;6.70;3.37;;;14.80;99.90;;;;;;4985750;28;20209;-52
2022/04/13 01:17:03;;;;;;;9.00;3.50;;;14.90;99.90;;;;;;4986094;28;20639;-51
2022/04/13 01:19:31;;;;;;;5.73;3.70;;;15.00;99.90;;;;;;4988061;28;20360;-52
2022/04/13 01:22:03;;;;;;;7.73;4.37;;;15.00;99.90;;;;;;4991321;28;20204;-51
2022/04/13 01:24:32;;;;;;;8.03;4.70;;;14.90;99.90;;;;;;4995048;28;20251;-50
2022/04/13 01:26:59;;;;;;;10.17;4.53;;;14.90;99.90;;;;;;4991485;28;20206;-50
2022/04/13 01:29:26;;;;;;;9.67;4.97;;;14.60;99.90;;;;;;4988621;28;20216;-52
2022/04/13 01:31:54;;;;;;;10.13;5.90;;;14.40;99.90;;;;;;5007242;28;20228;-51
2022/04/13 01:34:22;;;;;;;10.03;4.77;;;14.30;99.90;;;;;;4994343;28;20236;-51
2022/04/13 01:36:49;;;;;;;8.93;4.43;;;14.30;99.90;;;;;;4991855;28;20647;-52
2022/04/13 01:39:16;;;;;;;8.37;4.93;;;14.20;99.90;;;;;;4996155;28;20569;-50
2022/04/13 01:41:42;;;;;;;7.10;4.67;;;14.20;99.90;;;;;;4992825;28;20589;-52
2022/04/13 01:44:09;;;;;;;7.07;5.00;;;14.20;99.90;;;;;;4993063;28;20294;-51
2022/04/13 01:46:35;;;;;;;9.03;5.80;;;14.20;99.90;;;;;;4991763;28;20637;-52
2022/04/13 01:49:03;;;;;;;11.27;5.97;;;14.20;99.90;;;;;;4995451;28;20211;-49
2022/04/13 01:51:30;;;;;;;9.43;5.20;;;14.30;99.90;;;;;;4992078;28;20248;-51
2022/04/13 01:53:57;;;;;;;10.10;5.87;;;14.40;99.90;;;;;;4994480;28;20270;-52
2022/04/13 01:56:24;;;;;;;10.27;6.43;;;14.30;99.90;;;;;;4992721;28;20219;-53
2022/04/13 01:58:51;;;;;;;8.17;5.43;;;14.40;99.90;;;;;;4990847;28;20325;-51
2022/04/13 02:01:19;;;;;;;9.33;5.40;;;14.20;99.90;;;;;;4989965;28;20232;-50
2022/04/13 02:03:46;;;;;;;7.43;5.50;;;14.30;99.90;;;;;;4989542;28;20211;-52
2022/04/13 02:06:14;;;;;;;12.10;5.80;;;14.40;99.90;;;;;;5000951;28;20204;-51
2022/04/13 02:08:41;;;;;;;9.90;6.70;;;14.50;99.90;;;;;;4994453;28;20204;-51
2022/04/13 02:11:08;;;;;;;9.67;5.30;;;14.50;99.90;;;;;;4991731;28;22063;-52
2022/04/13 02:13:35;;;;;;;10.73;6.13;;;14.40;99.90;;;;;;4993826;28;20215;-49
2022/04/13 02:16:02;;;;;;;10.63;5.83;;;14.20;99.90;;;;;;4991503;28;20220;-50
2022/04/13 02:18:29;;;;;;;11.27;7.10;;;14.10;99.90;;;;;;4992977;28;20259;-51
2022/04/13 02:20:56;;;;;;;8.77;6.03;;;14.00;99.90;;;;;;4990248;28;20222;-55
2022/04/13 02:23:22;;;;;;;9.03;6.20;;;14.00;99.90;;;;;;4994051;28;20275;-50
2022/04/13 02:25:49;;;;;;;12.83;6.90;;;14.00;99.90;;;;;;4993247;28;20194;-49
2022/04/13 02:28:16;;;;;;;7.90;5.53;;;13.90;99.90;;;;;;5006890;28;20208;-50
2022/04/13 02:30:43;;;;;;;10.13;5.77;;;13.90;99.90;;;;;;4990173;28;20768;-52
2022/04/13 02:33:13;;;;;;;13.87;7.10;;;13.80;99.90;;;;;;4989120;28;20207;-52
2022/04/13 02:35:39;;;;;;;10.40;6.13;;;13.90;99.90;;;;;;4990834;28;20204;-52
2022/04/13 02:38:06;;;;;;;9.00;6.67;;;13.90;99.90;;;;;;4994293;28;20220;-50
2022/04/13 02:40:33;;;;;;;7.63;5.80;;;13.90;99.90;;;;;;4994651;28;20240;-50
2022/04/13 02:43:00;;;;;;;9.27;5.87;;;13.90;99.90;;;;;;4994935;28;20211;-51
2022/04/13 02:45:28;;;;;;;10.80;6.50;;;14.10;99.90;;;;;;4990353;28;20211;-50
2022/04/13 02:47:55;;;;;;;9.67;5.83;;;14.20;99.90;;;;;;4988697;28;20208;-52
2022/04/13 02:50:23;;;;;;;9.33;5.70;;;14.10;99.90;;;;;;4989661;28;20263;-50
2022/04/13 02:52:50;;;;;;;8.63;5.73;;;14.00;99.90;;;;;;4996258;28;20369;-51
2022/04/13 02:55:17;;;;;;;10.77;5.60;;;14.10;99.90;;;;;;4994186;28;20234;-51
2022/04/13 02:57:44;;;;;;;11.93;7.17;;;14.10;99.90;;;;;;4988756;28;20451;-51
2022/04/13 03:00:11;;;;;;;6.77;5.53;;;14.00;99.90;;;;;;4990550;28;20249;-51
2022/04/13 03:02:41;;;;;;;11.33;6.03;;;14.10;99.90;;;;;;4990855;28;20297;-51
2022/04/13 03:05:08;;;;;;;10.47;5.30;;;14.10;99.90;;;;;;4990263;28;20216;-52
2022/04/13 03:07:35;;;;;;;14.40;5.80;;;14.10;99.90;;;;;;4995824;28;20580;-51
2022/04/13 03:10:04;;;;;;;11.67;5.70;;;14.10;99.90;;;;;;4992883;28;20243;-51
2022/04/13 03:12:33;;;;;;;11.97;6.47;;;14.10;99.90;;;;;;4993932;28;20212;-51
2022/04/13 03:15:06;;;;;;;11.17;5.80;;;14.10;99.90;;;;;;4992330;28;20218;-49
2022/04/13 03:17:33;;;;;;;8.27;6.00;;;14.10;99.90;;;;;;4990830;28;20362;-50
2022/04/13 03:20:00;;;;;;;10.47;6.40;;;14.10;99.90;;;;;;4987602;28;20324;-52
2022/04/13 03:22:27;;;;;;;9.70;5.53;;;14.10;99.90;;;;;;4991895;28;20301;-52
2022/04/13 03:24:54;;;;;;;10.97;5.53;;;14.00;99.90;;;;;;4989950;28;20300;-51
2022/04/13 03:27:21;;;;;;;7.63;5.60;;;14.00;99.90;;;;;;4991626;28;20299;-52
2022/04/13 03:29:48;;;;;;;11.00;6.37;;;14.00;99.90;;;;;;4992313;28;20207;-52
2022/04/13 03:32:15;;;;;;;8.70;5.80;;;14.10;99.90;;;;;;4990813;28;20301;-50
2022/04/13 03:34:41;;;;;;;11.33;5.60;;;14.00;99.90;;;;;;4990146;28;20289;-52
2022/04/13 03:37:08;;;;;;;11.73;6.10;;;14.00;99.90;;;;;;4993566;28;20205;-51
2022/04/13 03:39:35;;;;;;;10.27;5.83;;;13.90;99.90;;;;;;4989689;28;20266;-50
2022/04/13 03:42:02;;;;;;;7.27;5.20;;;13.90;99.90;;;;;;4989825;28;20244;-51
2022/04/13 03:44:29;;;;;;;10.97;5.83;;;13.90;99.90;;;;;;4991439;28;20740;-51
2022/04/13 03:46:56;;;;;;;9.90;6.00;;;13.80;99.90;;;;;;4987216;28;20975;-52
2022/04/13 03:49:23;;;;;;;11.73;5.80;;;13.60;99.90;;;;;;4992796;28;20513;-52
2022/04/13 03:51:50;;;;;;;11.20;5.90;;;13.70;99.90;;;;;;4991128;28;20903;-52
2022/04/13 03:54:17;;;;;;;9.73;5.80;;;13.70;99.90;;;;;;4993153;28;20372;-52
2022/04/13 03:56:45;;;;;;;9.03;5.70;;;13.70;99.90;;;;;;5007942;28;20198;-53
2022/04/13 03:59:12;;;;;;;10.20;5.90;;;13.70;99.90;;;;;;4989731;28;20596;-53
2022/04/13 04:01:39;;;;;;;9.60;5.50;;;13.70;99.90;;;;;;4989588;28;20253;-52
2022/04/13 04:04:06;;;;;;;9.33;6.27;;;13.70;99.90;;;;;;4993287;28;20225;-53
2022/04/13 04:06:32;;;;;;;12.20;6.33;;;13.60;99.90;;;;;;4991489;28;20202;-53
2022/04/13 04:08:59;;;;;;;11.10;5.97;;;13.60;99.90;;;;;;4989543;28;20207;-51
2022/04/13 04:11:26;;;;;;;8.50;5.93;;;13.60;99.90;;;;;;4987785;28;20724;-53
2022/04/13 04:13:53;;;;;;;14.60;6.07;;;13.70;99.90;;;;;;4992389;28;20231;-54
2022/04/13 04:16:20;;;;;;;9.87;6.30;;;13.60;99.90;;;;;;4990736;28;20302;-51
2022/04/13 04:18:48;;;;;;;11.57;6.43;;;13.40;99.90;;;;;;4987326;28;20214;-51
2022/04/13 04:21:15;;;;;;;11.17;5.83;;;13.50;99.90;;;;;;4986839;28;20272;-52
2022/04/13 04:23:43;;;;;;;9.83;6.13;;;13.50;99.90;;;;;;4990462;28;20234;-50
2022/04/13 04:26:10;;;;;;;10.13;6.90;;;13.50;99.90;;;;;;4989792;28;20301;-50
2022/04/13 04:28:37;;;;;;;10.87;6.57;;;13.20;99.90;;;;;;4990815;28;20248;-53
2022/04/13 04:31:04;;;;;;;9.60;6.37;;;13.20;99.90;;;;;;4990852;28;20677;-51
2022/04/13 04:33:30;;;;;;;10.60;6.33;;;13.30;99.90;;;;;;4985475;28;20206;-52
2022/04/13 04:35:58;;;;;;;11.87;6.37;;;13.30;99.90;;;;;;4990297;28;20251;-53
2022/04/13 04:38:27;;;;;;;10.60;6.13;;;13.10;99.90;;;;;;4991002;28;20210;-51
2022/04/13 04:40:54;;;;;;;12.53;6.70;;;13.10;99.90;;;;;;4990395;28;20232;-52
2022/04/13 04:43:20;;;;;;;8.93;6.33;;;13.10;99.90;;;;;;5002545;28;20302;-52
2022/04/13 04:45:47;;;;;;;11.23;7.00;;;13.20;99.90;;;;;;4989300;28;20232;-52
2022/04/13 04:48:14;;;;;;;8.33;6.20;;;13.30;99.90;;;;;;4989190;28;20208;-51
2022/04/13 04:50:41;;;;;;;10.13;6.33;;;13.10;99.90;;;;;;4986969;28;20463;-52
2022/04/13 04:53:08;;;;;;;8.50;6.23;;;12.90;99.90;;;;;;4989474;28;20236;-51
2022/04/13 04:55:34;;;;;;;11.13;6.87;;;12.90;99.90;;;;;;4990727;28;20294;-51
2022/04/13 04:58:03;;;;;;;11.33;6.47;;;12.90;99.90;;;;;;4989317;28;20682;-54
2022/04/13 05:00:35;;;;;;;9.90;6.53;;;12.80;99.90;;;;;;4987337;28;20688;-52
2022/04/13 05:03:02;;;;;;;9.10;6.10;;;12.70;99.90;;;;;;4986488;28;20210;-50
2022/04/13 05:05:30;;;;;;;9.50;6.50;;;12.80;99.90;;;;;;4988408;28;20201;-52
2022/04/13 05:07:56;;;;;;;10.63;7.07;;;12.90;99.90;;;;;;4991154;28;21047;-50
2022/04/13 05:10:23;;;;;;;11.27;6.43;;;13.00;99.90;;;;;;4988280;28;20304;-51
2022/04/13 05:12:52;;;;;;;16.33;8.00;;;13.20;99.90;;;;;;4989425;28;20741;-50
2022/04/13 05:15:19;;;;;;;8.83;7.10;;;13.30;99.90;;;;;;4986714;28;20757;-52
2022/04/13 05:17:45;;;;;;;11.47;7.17;;;13.40;99.90;;;;;;4989888;28;21090;-52
2022/04/13 05:20:12;;;;;;;12.43;7.43;;;13.40;99.90;;;;;;4985975;28;20214;-53
2022/04/13 05:22:39;;;;;;;14.33;7.73;;;13.50;99.90;;;;;;4989321;28;20198;-51
2022/04/13 05:25:12;;;;;;;11.30;7.27;;;13.60;99.90;;;;;;5003606;28;20621;-55
2022/04/13 05:27:39;;;;;;;13.37;7.20;;;13.70;99.90;;;;;;4989558;28;20288;-51
2022/04/13 05:30:07;;;;;;;11.53;7.03;;;13.60;99.90;;;;;;4990808;28;20313;-54
2022/04/13 05:32:57;;;;;;;14.37;7.47;;;13.50;99.90;;;;;;4994166;28;20218;-56
2022/04/13 05:35:27;;;;;;;13.93;7.53;;;13.60;99.90;;;;;;4988782;28;20230;-53
2022/04/13 05:37:55;;;;;;;16.07;7.57;;;13.70;99.90;;;;;;4991165;28;20637;-52
2022/04/13 05:40:23;;;;;;;11.77;8.60;;;13.40;99.90;;;;;;4995020;28;20322;-51
2022/04/13 05:42:53;;;;;;;10.37;7.60;;;13.30;99.90;;;;;;4991052;28;20210;-52
2022/04/13 05:45:20;;;;;;;15.23;8.43;;;13.30;99.90;;;;;;4987286;28;20707;-52
2022/04/13 05:47:47;;;;;;;13.90;9.03;;;13.40;99.90;;;;;;4986315;28;20276;-51
2022/04/13 05:50:15;;;;;;;14.53;9.27;;;13.50;99.90;;;;;;4994366;28;20875;-52
2022/04/13 05:52:43;;;;;;;18.07;8.87;;;13.70;99.90;;;;;;5029792;28;20210;-52
2022/04/13 05:55:11;;;;;;;12.37;8.60;;;13.80;99.90;;;;;;5032549;28;20264;-50
2022/04/13 05:57:38;;;;;;;16.90;9.20;;;13.90;99.90;;;;;;5026530;28;20679;-51
2022/04/13 06:00:07;;;;;;;11.43;8.57;;;14.00;99.90;;;;;;5028063;28;21217;-53
2022/04/13 06:02:38;;;;;;;15.00;9.30;;;14.00;99.90;;;;;;5024393;28;20205;-53
2022/04/13 06:05:06;;;;;;;15.93;9.57;;;13.90;99.90;;;;;;5032697;28;20196;-51
2022/04/13 06:07:33;;;;;;;16.10;9.23;;;14.00;99.90;;;;;;5035141;28;20575;-52
2022/04/13 06:10:02;;;;;;;14.87;10.27;;;13.90;99.90;;;;;;5035394;28;20659;-50
2022/04/13 06:12:29;;;;;;;15.17;10.00;;;13.80;99.90;;;;;;5038452;28;20635;-52
2022/04/13 06:15:06;;;;;;;14.10;10.03;;;13.80;99.90;;;;;;5034688;28;20202;-50
2022/04/13 06:17:33;;;;;;;15.00;10.00;;;13.70;99.90;;;;;;5026349;28;20833;-52
2022/04/13 06:20:00;;;;;;;17.83;10.23;;;13.80;99.90;;;;;;5035392;28;20229;-52
2022/04/13 06:22:29;;;;;;;13.77;9.60;;;14.10;99.90;;;;;;5033914;28;20588;-52
2022/04/13 06:24:56;;;;;;;15.40;9.70;;;14.20;99.90;;;;;;5035926;28;20630;-50
2022/04/13 06:27:23;;;;;;;16.07;11.17;;;14.10;99.90;;;;;;5036068;28;20241;-50
2022/04/13 06:29:50;;;;;;;21.40;11.80;;;14.00;99.90;;;;;;5034971;28;20314;-51
2022/04/13 06:32:16;;;;;;;18.93;12.20;;;14.10;99.90;;;;;;5035724;28;22104;-52
2022/04/13 06:34:43;;;;;;;17.67;12.43;;;14.20;99.90;;;;;;5034069;28;20318;-50
2022/04/13 06:37:10;;;;;;;18.90;12.50;;;14.10;99.90;;;;;;5038659;28;20758;-49
2022/04/13 06:39:37;;;;;;;30.23;14.83;;;14.00;99.90;;;;;;5012357;28;20739;-51
2022/04/13 06:42:04;;;;;;;16.23;12.30;;;14.00;99.90;;;;;;5035370;28;20222;-55
2022/04/13 06:44:31;;;;;;;18.27;12.73;;;13.90;99.90;;;;;;5034962;28;20242;-51
2022/04/13 06:46:59;;;;;;;20.57;13.27;;;13.90;99.90;;;;;;5033372;28;20302;-50
2022/04/13 06:49:25;;;;;;;19.43;13.40;;;14.10;99.90;;;;;;5033082;28;20743;-51
2022/04/13 06:51:52;;;;;;;16.73;12.57;;;14.20;99.90;;;;;;5036189;28;20279;-51
2022/04/13 06:54:27;;;;;;;18.90;12.80;;;14.30;99.90;;;;;;5037207;28;20531;-51
2022/04/13 06:56:54;;;;;;;15.03;12.50;;;14.40;99.90;;;;;;5033769;28;21841;-51
2022/04/13 06:59:21;;;;;;;18.63;12.43;;;14.50;99.90;;;;;;5039260;28;20572;-50
2022/04/13 07:01:48;;;;;;;21.73;13.13;;;14.60;99.90;;;;;;5039837;28;20628;-51
2022/04/13 07:04:15;;;;;;;19.97;12.77;;;14.60;99.90;;;;;;5037659;28;20255;-52
2022/04/13 07:06:42;;;;;;;21.17;12.07;;;14.80;99.90;;;;;;5038264;28;20660;-50
2022/04/13 07:09:09;;;;;;;18.70;12.50;;;14.80;99.90;;;;;;5038262;28;20611;-50
2022/04/13 07:11:36;;;;;;;16.83;12.67;;;14.60;99.90;;;;;;5033808;28;20293;-52
2022/04/13 07:14:03;;;;;;;21.17;13.00;;;14.70;99.90;;;;;;5040706;28;20205;-50
2022/04/13 07:16:30;;;;;;;18.90;12.73;;;14.60;99.90;;;;;;5038550;28;20304;-53
2022/04/13 07:18:58;;;;;;;17.87;13.03;;;14.50;99.90;;;;;;5037185;28;20603;-50
2022/04/13 07:21:24;;;;;;;19.07;13.50;;;14.50;99.90;;;;;;5034451;28;20685;-51
2022/04/13 07:24:12;;;;;;;19.67;13.43;;;14.50;99.90;;;;;;5020589;28;20226;-51
2022/04/13 07:26:39;;;;;;;18.47;13.03;;;14.60;99.90;;;;;;5036446;28;20259;-51
2022/04/13 07:29:06;;;;;;;16.97;12.30;;;14.70;99.90;;;;;;5038200;28;20309;-51
2022/04/13 07:31:33;;;;;;;23.37;12.97;;;14.60;99.90;;;;;;5037518;28;20630;-51
2022/04/13 07:34:02;;;;;;;17.43;12.93;;;14.60;99.90;;;;;;5030785;28;20568;-49
2022/04/13 07:36:29;;;;;;;19.00;12.37;;;14.80;99.90;;;;;;5040116;28;20231;-49
2022/04/13 07:38:56;;;;;;;19.20;13.03;;;14.80;99.90;;;;;;5036677;28;20232;-50
2022/04/13 07:41:23;;;;;;;20.40;12.43;;;15.00;99.90;;;;;;5037524;28;20275;-51
2022/04/13 07:43:50;;;;;;;15.83;12.17;;;15.00;99.90;;;;;;5038165;28;20437;-50
2022/04/13 07:46:17;;;;;;;13.83;12.37;;;15.10;99.90;;;;;;5037623;28;20571;-50
2022/04/13 07:48:45;;;;;;;14.83;12.23;;;15.30;99.90;;;;;;5036336;28;20208;-50
2022/04/13 07:51:11;;;;;;;19.20;12.43;;;15.50;99.90;;;;;;5039029;28;20360;-51
2022/04/13 07:53:38;;;;;;;16.50;11.97;;;15.70;99.90;;;;;;5039030;28;20237;-52
2022/04/13 07:56:06;;;;;;;17.47;10.73;;;15.60;99.90;;;;;;5036876;28;20293;-51
2022/04/13 07:58:33;;;;;;;15.20;11.60;;;15.60;99.90;;;;;;5038012;28;20273;-51
2022/04/13 08:01:00;;;;;;;16.03;10.47;;;15.90;99.90;;;;;;5037867;28;20367;-51
2022/04/13 08:03:27;;;;;;;16.27;9.57;;;15.80;99.90;;;;;;5031117;28;20210;-52
2022/04/13 08:06:05;;;;;;;14.57;8.97;;;15.80;99.90;;;;;;5038791;28;20658;-52
2022/04/13 08:08:32;;;;;;;11.50;8.43;;;15.90;99.90;;;;;;5033285;28;20578;-50
2022/04/13 08:10:59;;;;;;;11.07;8.27;;;15.80;1.00;;;;;;5032895;28;20585;-51
2022/04/13 08:13:25;;;;;;;12.07;8.03;;;16.00;1.00;;;;;;5034188;28;20957;-51
2022/04/13 08:16:12;;;;;;;12.77;7.40;;;16.10;99.90;;;;;;5031707;28;20365;-51
2022/04/13 08:18:39;;;;;;;12.17;7.10;;;16.60;66.50;;;;;;5027216;28;20640;-52
2022/04/13 08:21:06;;;;;;;10.93;7.87;;;17.10;1.00;;;;;;5031881;28;20314;-51
2022/04/13 08:23:33;;;;;;;11.87;7.87;;;16.70;99.90;;;;;;5035620;28;20202;-52
2022/04/13 08:26:00;;;;;;;11.90;6.60;;;16.50;1.80;;;;;;5032890;28;20242;-51
2022/04/13 08:28:27;;;;;;;10.03;6.53;;;16.70;99.90;;;;;;5031817;28;20207;-51
2022/04/13 08:30:54;;;;;;;12.73;6.73;;;17.10;1.00;;;;;;5034951;28;20210;-49
2022/04/13 08:33:21;;;;;;;6.40;5.13;;;17.70;1.00;;;;;;5033084;28;20296;-51
2022/04/13 08:35:47;;;;;;;12.73;5.80;;;17.90;1.00;;;;;;5030398;28;20299;-52
2022/04/13 08:38:14;;;;;;;9.97;4.67;;;17.20;1.00;;;;;;5032265;28;20292;-51
2022/04/13 08:40:59;;;;;;;7.67;5.37;;;17.10;1.00;;;;;;5033720;28;20675;-52
2022/04/13 08:43:49;;;;;;;9.70;5.50;;;17.80;99.90;;;;;;5034173;28;20260;-51
2022/04/13 08:46:24;;;;;;;8.47;5.07;;;17.80;95.20;;;;;;5035247;28;20273;-50
2022/04/13 08:48:56;;;;;;;7.37;5.47;;;18.20;1.00;;;;;;5032445;28;20203;-50
2022/04/13 08:51:46;;;;;;;9.17;5.63;;;18.20;99.90;;;;;;5034680;28;20691;-52
2022/04/13 08:54:22;;;;;;;6.77;4.17;;;18.10;99.90;;;;;;5036805;28;20320;-52
2022/04/13 08:56:50;;;;;;;6.63;5.00;;;17.70;1.00;;;;;;5035185;28;20216;-52
2022/04/13 09:00:13;;;;;;;7.20;4.27;;;17.70;1.00;;;;;;5031425;28;20715;-51
2022/04/13 09:03:09;;;;;;;6.50;4.20;;;17.40;1.00;;;;;;5031262;28;20682;-50
2022/04/13 09:05:49;;;;;;;6.73;3.67;;;17.20;99.90;;;;;;5031382;28;20205;-52
2022/04/13 09:08:50;;;;;;;7.47;4.57;;;17.20;1.00;;;;;;5031096;28;20244;-51
2022/04/13 09:11:20;;;;;;;10.23;5.80;;;17.50;1.00;;;;;;5023055;28;20219;-51
2022/04/13 09:13:47;;;;;;;9.37;4.20;;;17.20;99.90;;;;;;5032609;28;20237;-52
2022/04/13 09:16:15;;;;;;;6.43;4.07;;;17.80;99.90;;;;;;5034495;28;20210;-53
2022/04/13 09:18:43;;;;;;;7.43;4.30;;;18.00;1.00;;;;;;5024608;28;20303;-50
2022/04/13 09:21:19;;;;;;;8.70;4.77;;;18.10;99.90;;;;;;5032636;28;20431;-51
2022/04/13 09:23:46;;;;;;;8.40;5.20;;;17.70;99.90;;;;;;5031930;28;20268;-55
2022/04/13 09:26:17;;;;;;;5.87;4.90;;;17.40;1.00;;;;;;5031530;28;20204;-51
2022/04/13 09:28:44;;;;;;;8.97;6.00;;;17.20;99.90;;;;;;5029049;28;20730;-51
2022/04/13 09:31:11;;;;;;;9.43;6.00;;;17.20;99.90;;;;;;5027589;28;20967;-53
2022/04/13 09:33:38;;;;;;;8.00;6.37;;;17.10;1.00;;;;;;5016829;28;20661;-52
2022/04/13 09:36:05;;;;;;;8.70;6.23;;;17.00;99.90;;;;;;5031161;28;22819;-52
2022/04/13 09:38:34;;;;;;;10.80;7.07;;;17.00;99.90;;;;;;5029422;28;20336;-51
2022/04/13 09:41:09;;;;;;;9.97;6.13;;;17.10;99.90;;;;;;5031511;28;20798;-51
2022/04/13 09:43:37;;;;;;;9.17;6.60;;;17.40;99.90;;;;;;5032463;28;20211;-50
2022/04/13 09:46:04;;;;;;;10.40;6.40;;;17.60;99.90;;;;;;5037698;28;20250;-53
2022/04/13 09:48:31;;;;;;;7.60;5.73;;;17.50;99.90;;;;;;5036936;28;20251;-52
2022/04/13 09:51:00;;;;;;;9.47;6.33;;;17.40;99.90;;;;;;5038625;28;20368;-52
2022/04/13 09:53:27;;;;;;;8.37;5.77;;;17.50;99.90;;;;;;5037510;28;20259;-51
2022/04/13 09:55:55;;;;;;;9.20;5.03;;;17.30;99.90;;;;;;5037158;28;20283;-53
2022/04/13 09:58:25;;;;;;;7.40;4.10;;;17.10;99.90;;;;;;5033865;28;20303;-51
2022/04/13 10:00:55;;;;;;;5.90;3.90;;;17.00;99.90;;;;;;5035602;28;20236;-50
2022/04/13 10:03:23;;;;;;;4.57;3.40;;;17.00;99.90;;;;;;5035462;28;20314;-51
2022/04/13 10:05:55;;;;;;;4.97;3.30;;;17.00;99.90;;;;;;5038877;28;20764;-51
2022/04/13 10:08:25;;;;;;;5.60;3.23;;;16.90;99.90;;;;;;5033777;28;20289;-51
2022/04/13 10:10:54;;;;;;;7.37;3.53;;;17.20;99.90;;;;;;5034979;28;20216;-51
2022/04/13 10:13:35;;;;;;;6.63;3.27;;;17.10;99.90;;;;;;5036311;28;20565;-52
2022/04/13 10:16:09;;;;;;;5.70;2.93;;;16.90;99.90;;;;;;5034819;28;20200;-50
2022/04/13 10:18:55;;;;;;;5.50;2.83;;;16.80;99.90;;;;;;5034643;28;20200;-52
2022/04/13 10:21:45;;;;;;;6.73;3.00;;;16.70;99.90;;;;;;5035808;28;20572;-52
2022/04/13 10:24:21;;;;;;;5.10;3.20;;;16.90;99.90;;;;;;5036706;28;20214;-53
2022/04/13 10:27:01;;;;;;;5.70;3.67;;;17.00;99.90;;;;;;5036781;28;20326;-52
2022/04/13 10:29:33;;;;;;;7.37;3.80;;;16.70;99.90;;;;;;5034216;28;20552;-52
2022/04/13 10:32:07;;;;;;;6.33;4.23;;;16.60;99.90;;;;;;5035813;28;20332;-52
2022/04/13 10:34:41;;;;;;;4.40;3.00;;;16.60;99.90;;;;;;5032021;28;20207;-51
2022/04/13 10:37:10;;;;;;;4.87;3.23;;;16.50;99.90;;;;;;5038335;28;20303;-52
2022/04/13 10:39:37;;;;;;;7.43;2.97;;;16.50;99.90;;;;;;5034807;28;20244;-49
2022/04/13 10:42:06;;;;;;;5.80;3.23;;;16.60;99.90;;;;;;5036573;28;20221;-51
2022/04/13 10:45:02;;;;;;;9.47;3.43;;;16.70;99.90;;;;;;5035362;28;20216;-50
2022/04/13 10:47:38;;;;;;;6.07;2.80;;;16.70;99.90;;;;;;5019838;28;20671;-52
2022/04/13 10:50:07;;;;;;;5.23;3.30;;;16.60;99.90;;;;;;5037505;28;20266;-52
2022/04/13 10:52:42;;;;;;;7.70;3.23;;;16.50;99.90;;;;;;5033769;28;20636;-52
2022/04/13 10:55:13;;;;;;;9.00;3.70;;;16.80;99.90;;;;;;5027845;28;20211;-51
2022/04/13 10:58:02;;;;;;;5.93;3.97;;;16.90;99.90;;;;;;5034570;28;20258;-50
2022/04/13 11:00:33;;;;;;;10.27;4.30;;;16.90;99.90;;;;;;5033865;28;20244;-57
2022/04/13 11:03:05;;;;;;;6.77;4.27;;;16.90;99.90;;;;;;5018315;28;20318;-53
2022/04/13 11:05:33;;;;;;;9.40;4.77;;;16.80;99.90;;;;;;5038581;28;20555;-52
2022/04/13 11:08:23;;;;;;;7.63;5.47;;;16.60;99.90;;;;;;5036746;28;20663;-53
2022/04/13 11:10:51;;;;;;;10.80;5.73;;;16.50;99.90;;;;;;5039040;28;20204;-52
2022/04/13 11:13:19;;;;;;;9.60;6.30;;;16.60;99.90;;;;;;5036864;28;20639;-50
2022/04/13 11:15:48;;;;;;;8.70;6.00;;;16.40;99.90;;;;;;5034679;28;20260;-52
2022/04/13 11:18:17;;;;;;;5.47;4.83;;;16.40;99.90;;;;;;5032427;28;20712;-52
2022/04/13 11:21:06;;;;;;;9.63;5.93;;;16.30;99.90;;;;;;5016619;28;20242;-50
2022/04/13 11:23:51;;;;;;;9.13;7.17;;;16.60;99.90;;;;;;5029188;28;20277;-52
2022/04/13 11:26:26;;;;;;;9.67;6.10;;;16.80;99.90;;;;;;5034477;28;20646;-51
2022/04/13 11:29:19;;;;;;;9.30;5.13;;;16.80;99.90;;;;;;5032190;28;20242;-51
2022/04/13 11:32:00;;;;;;;7.00;5.73;;;16.80;99.90;;;;;;5033388;28;20229;-51
2022/04/13 11:34:46;;;;;;;7.03;5.37;;;16.70;99.90;;;;;;5032214;28;20498;-53
2022/04/13 11:37:20;;;;;;;10.30;6.90;;;16.90;99.90;;;;;;5037742;28;20252;-52
2022/04/13 11:39:51;;;;;;;9.00;6.77;;;16.80;99.90;;;;;;5016521;28;20268;-52
2022/04/13 11:42:21;;;;;;;11.07;6.50;;;16.80;99.90;;;;;;5027181;28;20229;-51
2022/04/13 11:44:49;;;;;;;8.77;6.27;;;16.70;99.90;;;;;;5034200;28;20537;-53
2022/04/13 11:47:17;;;;;;;9.30;6.23;;;16.90;99.90;;;;;;5034209;28;20322;-58
2022/04/13 11:49:59;;;;;;;9.10;6.43;;;17.00;99.90;;;;;;5028366;28;20314;-51
2022/04/13 11:52:39;;;;;;;9.37;6.43;;;17.00;99.90;;;;;;5036287;28;20333;-52
2022/04/13 11:55:42;;;;;;;7.93;6.40;;;16.90;99.90;;;;;;5024616;28;20319;-51
2022/04/13 11:58:09;;;;;;;9.97;6.50;;;17.00;99.90;;;;;;5023961;28;20224;-52
2022/04/13 12:00:50;;;;;;;9.70;6.23;;;17.10;99.90;;;;;;5028926;28;20216;-60
2022/04/13 12:03:20;;;;;;;10.77;6.70;;;17.00;99.90;;;;;;5029896;28;20703;-59
2022/04/13 12:05:56;;;;;;;32.10;10.87;;;16.80;99.90;;;;;;5033186;28;20842;-60
2022/04/13 12:08:25;;;;;;;15.37;7.10;;;17.00;99.90;;;;;;5031231;28;20571;-61
2022/04/13 12:10:56;;;;;;;15.73;7.03;;;16.70;99.90;;;;;;5033019;28;20288;-60
2022/04/13 12:13:24;;;;;;;10.47;6.60;;;16.70;99.90;;;;;;5030101;28;20326;-52
2022/04/13 12:15:53;;;;;;;10.90;6.17;;;16.80;99.90;;;;;;5033657;28;20211;-50
2022/04/13 12:18:22;;;;;;;10.50;6.97;;;16.90;99.90;;;;;;5033749;28;20235;-52
2022/04/13 12:20:51;;;;;;;10.20;6.87;;;16.70;99.90;;;;;;5032643;28;20620;-52
2022/04/13 12:23:18;;;;;;;9.67;7.00;;;16.80;99.90;;;;;;5031816;28;20255;-51
2022/04/13 12:25:46;;;;;;;12.67;7.07;;;16.70;99.90;;;;;;5029541;28;20219;-53
2022/04/13 12:28:14;;;;;;;13.60;8.27;;;16.60;99.90;;;;;;5029009;28;20588;-51
2022/04/13 12:30:41;;;;;;;15.73;7.67;;;16.50;99.90;;;;;;5034760;28;20207;-52
2022/04/13 12:33:13;;;;;;;13.47;7.97;;;16.60;99.90;;;;;;5028997;28;20210;-52
2022/04/13 12:36:14;;;;;;;10.87;8.23;;;16.60;99.90;;;;;;5034889;28;20741;-49
2022/04/13 12:38:54;;;;;;;8.87;7.50;;;16.70;99.90;;;;;;5007344;28;20237;-52
2022/04/13 12:41:22;;;;;;;10.87;7.40;;;16.60;99.90;;;;;;5031981;28;20308;-55
2022/04/13 12:43:59;;;;;;;12.63;9.33;;;16.60;99.90;;;;;;5033131;28;20691;-51
2022/04/13 12:46:28;;;;;;;15.33;8.57;;;16.60;99.90;;;;;;5032912;28;20281;-51
2022/04/13 12:48:58;;;;;;;15.03;8.00;;;16.50;99.90;;;;;;5029878;28;21188;-54
2022/04/13 12:51:37;;;;;;;11.73;7.53;;;16.50;99.90;;;;;;5033928;28;20259;-53
2022/04/13 12:54:06;;;;;;;9.87;7.17;;;16.20;99.90;;;;;;5036418;28;20718;-51